Princeton, MN

2:28 AM CST on November 17, 2019 (GMT -0600)
Princeton Municipal

Weather History for KPNM - September, 2019

Change the Weather History Date:

Tuesday, September 3, 2019

  Actual Average Record
Temperature  
Mean Temperature 65 °F -  
Max Temperature 73 °F 75 °F 89 °F (2012)
Min Temperature 57 °F 52 °F 39 °F (2013)
Growing Degree Days 15 (Base 50)    
Moisture  
Dew Point 56 °F    
Average Humidity 76    
Maximum Humidity 100    
Minimum Humidity 50    
Precipitation  
Precipitation 0.00 in - - ()
Sea Level Pressure  
Sea Level Pressure 29.84 in    
Wind  
Wind Speed 8 mph (WNW)    
Max Wind Speed 20 mph    
Max Gust Speed 30 mph    
Visibility 10 miles    
Events Rain    
Averages and records for this station are not official NWS values.
T = Trace of Precipitation, MM = Missing Value Source: NWS Daily Summary

Daily Weather History Graph

Daily Weather History Graph

Search for Another Location

Airport or City:

Astronomy

Sep. 03, 2019 Rise Set
Actual Time 6:37 AM CDT 7:48 PM CDT
Civil Twilight 6:07 AM CDT 8:19 PM CDT
Nautical Twilight 5:30 AM CDT 8:55 PM CDT
Astronomical Twilight 4:51 AM CDT 9:34 PM CDT
Moon 11:45 AM CDT (9/3) 10:30 PM CDT (9/3)
Length of Visible Light 14h 11m
Length of Day
13h 10m
Waxing Crescent, 25% of the Moon is Illuminated
Sep 3
Waxing Crescent
Sep 5
First Quarter
Sep 13
Full
Sep 21
Last Quarter
Sep 28
New

Hourly Weather History & Observations

Time (CDT) Temp. Dew Point Humidity Pressure Visibility Wind Dir Wind Speed Gust Speed Precip Events Conditions
12:15 AM 60.8 °F 57.2 °F 88% 29.81 in 10.0 mi ESE 11.5 mph 16.1 mph N/A   Scattered Clouds
12:38 AM 60.8 °F 57.2 °F 88% 29.80 in 10.0 mi East 4.6 mph - N/A   Scattered Clouds
12:56 AM 60.8 °F 57.2 °F 88% 29.80 in 10.0 mi ESE 5.8 mph - N/A   Mostly Cloudy
1:15 AM 60.8 °F 57.2 °F 88% 29.80 in 10.0 mi ESE 5.8 mph - N/A Rain Light Rain
1:16 AM 60.8 °F 57.2 °F 88% 29.80 in 10.0 mi ESE 6.9 mph - N/A   Overcast
1:35 AM 60.8 °F 57.2 °F 88% 29.78 in 10.0 mi SE 6.9 mph - N/A Rain Light Rain
1:59 AM 60.8 °F 57.2 °F 88% 29.78 in 4.0 mi SE 6.9 mph - N/A Rain Rain
2:17 AM 60.8 °F 59.0 °F 94% 29.77 in 10.0 mi SE 5.8 mph - N/A   Overcast
2:35 AM 60.8 °F 59.0 °F 94% 29.75 in 10.0 mi SE 3.5 mph - N/A   Overcast
2:36 AM 60.8 °F 59.0 °F 94% 29.75 in 10.0 mi SE 3.5 mph - N/A   Overcast
2:55 AM 60.8 °F 60.8 °F 100% 29.75 in 10.0 mi Calm Calm - N/A   Overcast
3:15 AM 60.8 °F 60.8 °F 100% 29.74 in 10.0 mi Calm Calm - N/A   Overcast
3:19 AM 60.8 °F 59.0 °F 94% 29.74 in 10.0 mi ESE 3.5 mph - N/A   Mostly Cloudy
3:38 AM 60.8 °F 60.8 °F 100% 29.74 in 10.0 mi Calm Calm - N/A   Overcast
3:56 AM 62.6 °F 60.8 °F 94% 29.73 in 10.0 mi Calm Calm - N/A   Overcast
4:15 AM 60.8 °F 60.8 °F 100% 29.74 in 10.0 mi North 4.6 mph - N/A   Overcast
4:35 AM 60.8 °F 60.8 °F 100% 29.75 in 10.0 mi NNW 3.5 mph - N/A   Overcast
4:36 AM 60.8 °F 60.8 °F 100% 29.75 in 10.0 mi NNW 3.5 mph - N/A   Overcast
4:58 AM 60.8 °F 59.0 °F 94% 29.75 in 10.0 mi NW 3.5 mph - N/A   Overcast
5:17 AM 60.8 °F 57.2 °F 88% 29.74 in 10.0 mi Calm Calm - N/A   Mostly Cloudy
5:35 AM 60.8 °F 59.0 °F 94% 29.74 in 10.0 mi Calm Calm - N/A   Mostly Cloudy
5:55 AM 59.0 °F 57.2 °F 94% 29.74 in 10.0 mi Calm Calm - N/A   Overcast
6:15 AM 59.0 °F 57.2 °F 94% 29.74 in 10.0 mi Calm Calm - N/A   Overcast
6:20 AM 59.0 °F 57.2 °F 94% 29.74 in 10.0 mi Calm Calm - N/A   Overcast
6:38 AM 59.0 °F 57.2 °F 94% 29.74 in 7.0 mi Calm Calm - N/A   Scattered Clouds
6:56 AM 57.2 °F 57.2 °F 100% 29.75 in 10.0 mi Calm Calm - N/A   Scattered Clouds
7:15 AM 59.0 °F 57.2 °F 94% 29.76 in 5.0 mi West 3.5 mph - N/A   Mostly Cloudy
7:16 AM 59.0 °F 57.2 °F 94% 29.76 in 5.0 mi Calm Calm - N/A   Overcast
7:35 AM 60.8 °F 60.8 °F 100% 29.76 in 10.0 mi West 3.5 mph - N/A   Overcast
7:59 AM 62.6 °F 62.6 °F 100% 29.77 in 10.0 mi West 8.1 mph - N/A   Overcast
8:17 AM 64.4 °F 64.4 °F 100% 29.77 in 10.0 mi West 6.9 mph - N/A   Overcast
8:35 AM 66.2 °F 64.4 °F 94% 29.76 in 10.0 mi West 8.1 mph - N/A   Mostly Cloudy
8:55 AM 68.0 °F 64.4 °F 88% 29.77 in 10.0 mi WSW 10.4 mph - N/A   Scattered Clouds
9:15 AM 69.8 °F 62.6 °F 78% 29.77 in 10.0 mi West 18.4 mph 25.3 mph N/A   Scattered Clouds
9:19 AM 69.8 °F 62.6 °F 78% 29.77 in 10.0 mi West 10.4 mph 25.3 mph N/A   Scattered Clouds
9:38 AM 69.8 °F 62.6 °F 78% 29.77 in 10.0 mi West 12.7 mph 25.3 mph N/A   Scattered Clouds
9:56 AM 69.8 °F 60.8 °F 73% 29.77 in 10.0 mi West 13.8 mph 25.3 mph N/A   Scattered Clouds
10:15 AM 69.8 °F 60.8 °F 73% 29.77 in 10.0 mi West 10.4 mph 23.0 mph N/A   Clear
10:35 AM 69.8 °F 57.2 °F 64% 29.78 in 10.0 mi West 17.3 mph 27.6 mph N/A   Scattered Clouds
10:36 AM 71.6 °F 57.2 °F 60% 29.78 in 10.0 mi West 15.0 mph 27.6 mph N/A   Scattered Clouds
10:59 AM 71.6 °F 57.2 °F 60% 29.78 in 10.0 mi WNW 16.1 mph 28.8 mph N/A   Scattered Clouds
11:17 AM 71.6 °F 57.2 °F 60% 29.78 in 10.0 mi WNW 19.6 mph 25.3 mph N/A   Scattered Clouds
11:35 AM 71.6 °F 55.4 °F 57% 29.79 in 10.0 mi West 19.6 mph 28.8 mph N/A   Scattered Clouds
11:55 AM 71.6 °F 55.4 °F 57% 29.79 in 10.0 mi West 19.6 mph 27.6 mph N/A   Scattered Clouds
12:15 PM 73.4 °F 55.4 °F 53% 29.80 in 10.0 mi West 17.3 mph 25.3 mph N/A   Scattered Clouds
12:20 PM 73.4 °F 55.4 °F 53% 29.80 in 10.0 mi West 15.0 mph 25.3 mph N/A   Scattered Clouds
12:38 PM 73.4 °F 55.4 °F 53% 29.80 in 10.0 mi West 13.8 mph 21.9 mph N/A   Scattered Clouds
12:57 PM 73.4 °F 55.4 °F 53% 29.80 in 10.0 mi WNW 17.3 mph - N/A   Scattered Clouds
1:15 PM 73.4 °F 53.6 °F 50% 29.81 in 10.0 mi West 19.6 mph 27.6 mph N/A   Scattered Clouds
1:35 PM 73.4 °F 53.6 °F 50% 29.83 in 10.0 mi West 18.4 mph 28.8 mph N/A   Mostly Cloudy
1:55 PM 71.6 °F 53.6 °F 53% 29.83 in 10.0 mi WNW 15.0 mph 25.3 mph N/A   Mostly Cloudy
2:18 PM 71.6 °F 55.4 °F 57% 29.84 in 10.0 mi West 17.3 mph 25.3 mph N/A   Mostly Cloudy
2:35 PM 71.6 °F 53.6 °F 53% 29.85 in 10.0 mi WNW 18.4 mph 29.9 mph N/A   Scattered Clouds
2:55 PM 71.6 °F 53.6 °F 53% 29.86 in 10.0 mi WNW 18.4 mph 27.6 mph N/A   Scattered Clouds
3:15 PM 71.6 °F 53.6 °F 53% 29.87 in 10.0 mi WNW 16.1 mph 25.3 mph N/A   Scattered Clouds
3:36 PM 68.0 °F 53.6 °F 60% 29.88 in 10.0 mi WNW 16.1 mph 25.3 mph N/A   Mostly Cloudy
3:55 PM 68.0 °F 53.6 °F 60% 29.89 in 10.0 mi WNW 13.8 mph 21.9 mph N/A   Overcast
4:15 PM 66.2 °F 53.6 °F 64% 29.89 in 10.0 mi West 11.5 mph - N/A   Overcast
4:16 PM 66.2 °F 53.6 °F 64% 29.89 in 10.0 mi West 10.4 mph - N/A   Overcast
4:39 PM 66.2 °F 53.6 °F 64% 29.89 in 10.0 mi West 10.4 mph - N/A   Mostly Cloudy
4:57 PM 68.0 °F 53.6 °F 60% 29.89 in 10.0 mi WNW 15.0 mph 24.2 mph N/A   Scattered Clouds
5:15 PM 66.2 °F 53.6 °F 64% 29.90 in 10.0 mi West 16.1 mph 24.2 mph N/A   Mostly Cloudy
5:35 PM 66.2 °F 55.4 °F 68% 29.91 in 10.0 mi West 10.4 mph 20.7 mph N/A   Overcast
5:55 PM 66.2 °F 55.4 °F 68% 29.91 in 10.0 mi West 12.7 mph 19.6 mph N/A   Overcast
5:59 PM 66.2 °F 55.4 °F 68% 29.92 in 10.0 mi WNW 12.7 mph 20.7 mph N/A   Overcast
6:17 PM 66.2 °F 55.4 °F 68% 29.92 in 10.0 mi WNW 15.0 mph 18.4 mph N/A   Overcast
6:35 PM 66.2 °F 53.6 °F 64% 29.93 in 10.0 mi WNW 10.4 mph 16.1 mph N/A   Scattered Clouds
6:55 PM 66.2 °F 53.6 °F 64% 29.94 in 10.0 mi WNW 9.2 mph - N/A   Mostly Cloudy
7:15 PM 64.4 °F 53.6 °F 68% 29.95 in 10.0 mi WNW 9.2 mph 17.3 mph N/A   Overcast
7:20 PM 64.4 °F 53.6 °F 68% 29.95 in 10.0 mi WNW 6.9 mph - N/A   Overcast
7:38 PM 64.4 °F 53.6 °F 68% 29.96 in 10.0 mi WNW 10.4 mph 17.3 mph N/A   Overcast
7:56 PM 64.4 °F 51.8 °F 64% 29.96 in 10.0 mi WNW 17.3 mph 25.3 mph N/A   Overcast
8:15 PM 64.4 °F 51.8 °F 64% 29.98 in 10.0 mi WNW 11.5 mph 17.3 mph N/A   Overcast
8:35 PM 62.6 °F 51.8 °F 68% 29.99 in 10.0 mi WNW 15.0 mph - N/A   Overcast
8:59 PM 62.6 °F 50.0 °F 63% 30.00 in 10.0 mi NW 10.4 mph - N/A   Overcast
9:17 PM 62.6 °F 50.0 °F 63% 30.01 in 10.0 mi NW 6.9 mph - N/A   Overcast
9:35 PM 60.8 °F 51.8 °F 72% 30.02 in 10.0 mi WNW 8.1 mph - N/A   Overcast
9:55 PM 60.8 °F 51.8 °F 72% 30.02 in 10.0 mi WNW 6.9 mph - N/A   Overcast
10:15 PM 60.8 °F 50.0 °F 68% 30.03 in 10.0 mi WNW 5.8 mph - N/A   Overcast
10:38 PM 60.8 °F 51.8 °F 72% 30.04 in 10.0 mi WNW 5.8 mph - N/A   Overcast
10:56 PM 60.8 °F 51.8 °F 72% 30.05 in 10.0 mi WNW 5.8 mph - N/A   Overcast
11:15 PM 60.8 °F 51.8 °F 72% 30.05 in 10.0 mi West 5.8 mph - N/A   Overcast
11:35 PM 59.0 °F 51.8 °F 77% 30.05 in 10.0 mi WNW 6.9 mph - N/A   Mostly Cloudy
11:36 PM 59.0 °F 51.8 °F 77% 30.05 in 10.0 mi WNW 6.9 mph - N/A   Mostly Cloudy
11:59 PM 59.0 °F 51.8 °F 77% 30.06 in 10.0 mi West 5.8 mph - N/A   Overcast